createdAt,value
2018-04-25T00:08:28.977Z,1000.97
2018-04-25T00:18:29.010Z,1000.79
2018-04-25T00:28:29.005Z,1000.44
2018-04-25T00:38:29.796Z,1000.43
2018-04-25T00:48:29.004Z,1000.27
2018-04-25T00:58:29.063Z,1000.09
2018-04-25T01:08:29.112Z,999.82
2018-04-25T01:18:29.044Z,999.74
2018-04-25T01:28:29.065Z,999.86
2018-04-25T01:38:29.084Z,999.56
2018-04-25T01:48:29.108Z,999.47
2018-04-25T01:58:29.093Z,999.31
2018-04-25T02:08:29.392Z,999.23
2018-04-25T02:18:29.115Z,999.26
2018-04-25T02:28:29.201Z,999.2
2018-04-25T02:38:29.135Z,999.13
2018-04-25T02:48:29.134Z,999.1
2018-04-25T02:58:29.144Z,999
2018-04-25T03:08:29.252Z,998.96
2018-04-25T03:18:29.224Z,998.86
2018-04-25T03:28:29.188Z,998.77
2018-04-25T03:38:29.201Z,998.88
2018-04-25T03:48:29.232Z,998.73
2018-04-25T03:58:29.265Z,998.71
2018-04-25T04:08:29.322Z,998.62
2018-04-25T04:18:29.221Z,998.6
2018-04-25T04:28:29.248Z,998.63
2018-04-25T04:38:29.229Z,998.6
2018-04-25T04:48:29.242Z,998.54
2018-04-25T04:58:29.324Z,998.55
2018-04-25T05:08:29.313Z,998.48
2018-04-25T05:18:29.291Z,998.58
2018-04-25T05:28:29.317Z,998.78
2018-04-25T05:38:29.297Z,999.1
2018-04-25T05:48:29.325Z,999.38
2018-04-25T05:58:29.397Z,999.34
2018-04-25T06:08:29.371Z,999.4
2018-04-25T06:18:29.362Z,999.46
2018-04-25T06:28:29.352Z,999.61
2018-04-25T06:38:29.349Z,999.76
2018-04-25T06:48:29.497Z,999.87
2018-04-25T06:58:29.458Z,999.92
2018-04-25T07:08:29.422Z,999.96
2018-04-25T07:18:29.479Z,999.89
2018-04-25T07:28:29.410Z,1000.08
2018-04-25T07:38:29.497Z,1000.24
2018-04-25T07:48:29.424Z,1000.61
2018-04-25T07:58:29.427Z,1000.77
2018-04-25T08:08:29.460Z,1001.01
2018-04-25T08:18:29.464Z,1001.03
2018-04-25T08:28:29.478Z,1001.32
2018-04-25T08:38:29.478Z,1001.35
2018-04-25T08:48:29.483Z,1001.5
2018-04-25T08:58:29.472Z,1001.68
2018-04-25T09:08:29.512Z,1001.88
2018-04-25T09:18:29.446Z,1002
2018-04-25T09:28:29.468Z,1002.18
2018-04-25T09:38:29.482Z,1002.3
2018-04-25T09:48:29.477Z,1002.39
2018-04-25T09:58:29.471Z,1002.56
2018-04-25T10:08:29.451Z,1002.76
2018-04-25T10:18:29.464Z,1002.91
2018-04-25T10:28:29.480Z,1003.16
2018-04-25T10:38:29.466Z,1003.24
2018-04-25T10:48:29.456Z,1003.16
2018-04-25T10:58:29.520Z,1003.27
2018-04-25T11:08:30.180Z,1003.27
2018-04-25T11:18:29.453Z,1003.2
2018-04-25T11:28:29.470Z,1003.45
2018-04-25T11:38:29.461Z,1003.72
2018-04-25T11:48:29.464Z,1003.68
2018-04-25T11:58:29.471Z,1003.75
2018-04-25T12:08:29.505Z,1003.8
2018-04-25T12:18:29.485Z,1003.97
2018-04-25T12:28:29.548Z,1003.97
2018-04-25T12:38:29.543Z,1004.11
2018-04-25T12:48:29.508Z,1004.14
2018-04-25T12:58:29.487Z,1004.19
2018-04-25T13:08:29.491Z,1004.13
2018-04-25T13:18:29.483Z,1004.15
2018-04-25T13:28:29.493Z,1004.12
2018-04-25T13:38:29.492Z,1004.1
2018-04-25T13:48:29.503Z,1004.12
2018-04-25T13:58:29.530Z,1004.21
2018-04-25T14:08:29.491Z,1004.15
2018-04-25T14:18:29.500Z,1004.21
2018-04-25T14:28:29.474Z,1004.13
2018-04-25T14:38:29.493Z,1004.14
2018-04-25T14:48:29.647Z,1003.95
2018-04-25T14:58:42.002Z,1004.17
2018-04-25T15:08:30.079Z,1004.17
2018-04-25T15:18:29.522Z,1004.02
2018-04-25T15:28:29.584Z,1003.9
2018-04-25T15:38:29.469Z,1003.86
2018-04-25T15:48:29.486Z,1003.84
2018-04-25T15:58:29.558Z,1003.84
2018-04-25T16:08:29.496Z,1003.79
2018-04-25T16:18:29.594Z,1003.8
2018-04-25T16:28:29.597Z,1003.71
2018-04-25T16:38:29.583Z,1003.63
2018-04-25T16:48:29.491Z,1003.55
2018-04-25T16:58:29.494Z,1003.43
2018-04-25T17:08:29.580Z,1003.6
2018-04-25T17:18:29.549Z,1003.51
2018-04-25T17:28:29.471Z,1003.5
2018-04-25T17:38:29.470Z,1003.52
2018-04-25T17:48:29.461Z,1003.56
2018-04-25T17:58:29.490Z,1003.61
2018-04-25T18:08:29.558Z,1003.68
2018-04-25T18:18:29.538Z,1003.86
2018-04-25T18:28:29.756Z,1003.86
2018-04-25T18:38:29.487Z,1003.84
2018-04-25T18:48:29.492Z,1003.98
2018-04-25T18:58:29.545Z,1003.99
2018-04-25T19:08:29.480Z,1004.13
2018-04-25T19:18:29.514Z,1004.24
2018-04-25T19:28:34.354Z,1004.28
2018-04-25T19:38:29.515Z,1004.4
2018-04-25T19:48:29.533Z,1004.46
2018-04-25T19:58:29.570Z,1004.42
2018-04-25T20:08:29.570Z,1004.51
2018-04-25T20:18:29.606Z,1004.5
2018-04-25T20:28:29.604Z,1004.61
2018-04-25T20:38:29.612Z,1004.95
2018-04-25T20:48:29.608Z,1004.68
2018-04-25T20:58:29.722Z,1004.72
2018-04-25T21:08:41.487Z,1004.71
2018-04-25T21:18:41.855Z,1004.54
2018-04-25T21:28:31.198Z,1004.62
2018-04-25T21:38:32.947Z,1004.61
2018-04-25T21:48:31.916Z,1004.5
2018-04-25T21:58:32.134Z,1004.44
2018-04-25T22:08:32.109Z,1004.66
2018-04-25T22:18:32.194Z,1004.57
2018-04-25T22:28:32.115Z,1004.57
2018-04-25T22:38:31.659Z,1004.6
2018-04-25T22:48:31.890Z,1004.52
2018-04-25T22:58:31.973Z,1004.56
2018-04-25T23:08:31.932Z,1004.6
2018-04-25T23:18:31.177Z,1004.53
2018-04-25T23:28:31.987Z,1004.58
2018-04-25T23:38:31.566Z,1004.55
2018-04-25T23:48:34.896Z,1004.5
2018-04-25T23:58:31.764Z,1004.46
